Northway Airport Northway US
ICAO: PAOR
IATA:
Category: Medium
Scheduled Services:

Elevation: 1715 ft
TransAlt. 18000 ft.

Airport Communications:
ASOS:135.4
ANCHORAGE CNTR:126.55
CTAF:123.6
RDO:122.2
SUAS INFO SVC:125.3

PAOR Zoom In..

Runways:

(A) RW 05 length 5100 ft width 100 ft
---- / hdg 52

(B) RW 23 length 5100 ft width 100 ft
---- / hdg 232

Location; PAOR
Day. 20 / Time. 19.53 Zulu
* Altimeter: 30.25
* Temperature: 21° c. 69.8°f.
* Wind from: 350° Speed 05 kn.
Dewpoint: 12° c.
Visibility: 10 Statute Miles.
Clouds: Scattered 13000 ft.

PAOR 201953Z 35005KT 10SM SCT130 21/12 A3025 RMK AO2 SLP237 T02060117


Wind From 350°
Speed 05 kn.

 
 
jpsmedia.com for Web Design worldairports.se 2018   terms of use